This is the latest recevied weather packets stored in our database for station/object JR5YHL-13. If no packets are shown the sender has not sent any weather packets the latest 10 day(s).
| Time | Temp. | Humidity | Pressure | Rain* | Wind** | Luminosity | Snow |
|---|---|---|---|---|---|---|---|
| 1777741675 | 15.56° C | 90% | 1012.3 hPa | 0 mm | - | - | - |
| 1777741078 | 15.56° C | 89% | 1012.3 hPa | 0 mm | - | - | - |
| 1777740480 | 16.11° C | 91% | 1012.3 hPa | 0 mm | - | - | - |
| 1777739883 | 16.11° C | 91% | 1012.2 hPa | 0 mm | - | - | - |
| 1777739286 | 16.11° C | 90% | 1012.3 hPa | 0 mm | - | - | - |
| 1777738688 | 16.11° C | 91% | 1012.4 hPa | 0 mm | - | - | - |
| 1777738091 | 16.11° C | 90% | 1012.6 hPa | 0 mm | - | - | - |
| 1777737494 | 16.67° C | 94% | 1012.6 hPa | 0 mm | - | - | - |
| 1777736896 | 16.67° C | 92% | 1012.7 hPa | 0 mm | - | - | - |
| 1777736299 | 16.67° C | 99% | 1012.5 hPa | 0 mm | - | - | - |
| 1777735702 | 16.67° C | 99% | 1012.6 hPa | 0 mm | - | - | - |
| 1777735104 | 17.22° C | 96% | 1012.9 hPa | 0 mm | - | - | - |
| 1777734507 | 17.22° C | 99% | 1012.9 hPa | 0 mm | - | - | - |
| 1777733909 | 16.67° C | 99% | 1013 hPa | 0 mm | - | - | - |
| 1777733312 | 16.67° C | 94% | 1013.3 hPa | 0 mm | - | - | - |
| 1777732715 | 17.22° C | 98% | 1013.2 hPa | 0 mm | - | - | - |
| 1777732117 | 17.22° C | 97% | 1013.3 hPa | 0 mm | - | - | - |
| 1777731520 | 17.22° C | 99% | 1013.4 hPa | 0 mm | - | - | - |
| 1777730922 | 17.22° C | 99% | 1013.2 hPa | 0 mm | - | - | - |
| 1777730325 | 17.22° C | 99% | 1013.2 hPa | 0 mm | - | - | - |
| 1777729727 | 17.78° C | 99% | 1013.1 hPa | 0 mm | - | - | - |
| 1777729130 | 17.22° C | 99% | 1013.2 hPa | 0 mm | - | - | - |
| 1777728532 | 17.78° C | 98% | 1013.2 hPa | 0 mm | - | - | - |
| 1777727935 | 17.78° C | 97% | 1013.4 hPa | 0 mm | - | - | - |
| 1777727338 | 17.78° C | 95% | 1013.5 hPa | 0 mm | - | - | - |
* Rain latest hour (hover to see other rain measurements)
** Current wind speed in m/s (hover to see current wind gust speed)